MEB weather

Melbourne Essendon Airport
Melbourne, Victoria, Australia

Public forecast

Using degrees Celsius for public forecast. Weather courtesy of forecast.io.

Current aviation weather report (METAR) for Melbourne Essendon Airport

Retrieved 2019/10/16 08:00 UTC (5 minutes ago):

YMEN 160800Z AUTO 19008KT //// // SCT070 OVC082 OVC099 14/12 Q1008

Closest aviation forecast (TAF) to Melbourne Essendon Airport

Forecast is more than 6 hours old.

Closest forecast is Melbourne International Airport, 4.3 nm (8.0 km) NW. Retrieved 2019-10-16 00:00 UTC (8 hours ago):

TAF YMML 152313Z 1600/1706 36006KT 9999 -RA FEW035 BKN060 FM160700 20008KT 9999 SHRA SCT010 SCT025 BKN040 FM161300 33008KT 9999 -SHRA SCT040 FM161700 30012KT 9999 -SHRA SCT030 BKN040 FM162200 28015G25KT 9999 -SHRA SCT025 BKN040 FM170100 26018G32KT 9999 -SHRA SCT030 BKN045 INTER 1600/1615 4000 RA SCT015 TEMPO 1606/1612 3000 +SHRA BKN006 INTER 1700/1706 3000 SHRAGS BKN012 PROB30 INTER 1615/1618 29018G35KT 2000 TSRA BKN005 SCT030CB